Time;durP1;ratioP1;P1;durP2;ratioP2;P2;SDS_P1;SDS_P2;PMS_P1;PMS_P2;Temp;Humidity;BMP_temperature;BMP_pressure;BME280_temperature;BME280_humidity;BME280_pressure;Samples;Min_cycle;Max_cycle;Signal;HPM_P1;HPM_P2
2024/02/14 00:02:12;;;;;;;9.13;5.30;;;;;;;;;;5073123;28;20170;-77
2024/02/14 00:04:39;;;;;;;7.20;5.30;;;;;;;;;;5072770;28;20025;-77
2024/02/14 00:07:05;;;;;;;8.50;4.28;;;;;;;;;;5072987;28;20024;-78
2024/02/14 00:09:31;;;;;;;6.40;4.40;;;;;;;;;;5071721;28;20406;-79
2024/02/14 00:11:57;;;;;;;8.63;4.65;;;;;;;;;;5072094;28;20114;-79
2024/02/14 00:14:24;;;;;;;12.75;6.55;;;;;;;;;;5071336;28;20040;-80
2024/02/14 00:16:50;;;;;;;7.78;5.40;;;;;;;;;;5072781;28;20017;-80
2024/02/14 00:19:17;;;;;;;8.63;4.25;;;;;;;;;;5071701;28;20028;-80
2024/02/14 00:21:43;;;;;;;7.72;4.13;;;;;;;;;;5072891;28;20078;-78
2024/02/14 00:24:09;;;;;;;8.27;4.53;;;;;;;;;;5071670;28;20113;-80
2024/02/14 00:26:35;;;;;;;8.98;6.05;;;;;;;;;;5071624;28;20025;-80
2024/02/14 00:29:02;;;;;;;7.72;5.40;;;;;;;;;;5071691;28;20031;-79
2024/02/14 00:31:28;;;;;;;9.48;6.63;;;;;;;;;;5074453;28;20025;-79
2024/02/14 00:33:54;;;;;;;9.77;6.93;;;;;;;;;;5079772;28;20020;-79
2024/02/14 00:36:20;;;;;;;10.45;6.45;;;;;;;;;;5079322;28;20024;-79
2024/02/14 00:38:46;;;;;;;14.27;8.00;;;;;;;;;;5075836;28;20082;-80
2024/02/14 00:41:12;;;;;;;9.13;6.78;;;;;;;;;;5071746;28;20027;-80
2024/02/14 00:43:38;;;;;;;11.57;6.85;;;;;;;;;;5071448;28;20028;-81
2024/02/14 00:46:04;;;;;;;9.60;7.45;;;;;;;;;;5072064;28;20036;-80
2024/02/14 00:48:32;;;;;;;10.32;6.13;;;;;;;;;;5071802;28;20496;-79
2024/02/14 00:50:59;;;;;;;12.10;7.00;;;;;;;;;;5071274;28;20286;-80
2024/02/14 00:53:25;;;;;;;10.02;6.68;;;;;;;;;;5070845;28;20025;-79
2024/02/14 00:55:51;;;;;;;13.23;6.05;;;;;;;;;;5071012;28;20567;-79
2024/02/14 00:58:17;;;;;;;8.73;6.25;;;;;;;;;;5070997;28;20021;-80
2024/02/14 01:00:43;;;;;;;10.43;7.45;;;;;;;;;;5070843;28;20036;-79
2024/02/14 01:03:12;;;;;;;8.77;5.07;;;;;;;;;;5070771;28;20031;-81
2024/02/14 01:05:38;;;;;;;11.68;7.53;;;;;;;;;;5070765;28;20040;-79
2024/02/14 01:08:05;;;;;;;7.85;6.10;;;;;;;;;;5070885;28;20069;-79
2024/02/14 01:10:31;;;;;;;10.80;7.88;;;;;;;;;;5070668;28;20032;-81
2024/02/14 01:12:57;;;;;;;11.70;7.07;;;;;;;;;;5072602;28;20024;-79
2024/02/14 01:15:23;;;;;;;10.82;6.15;;;;;;;;;;5071937;28;20049;-80
2024/02/14 01:17:49;;;;;;;9.88;6.28;;;;;;;;;;5070649;28;20036;-79
2024/02/14 01:20:16;;;;;;;9.68;7.40;;;;;;;;;;5070840;28;20466;-79
2024/02/14 01:22:42;;;;;;;9.73;7.10;;;;;;;;;;5070537;28;20074;-81
2024/02/14 01:25:09;;;;;;;10.48;7.25;;;;;;;;;;5070747;28;20024;-80
2024/02/14 01:27:36;;;;;;;10.13;6.47;;;;;;;;;;5070609;28;20063;-81
2024/02/14 01:30:02;;;;;;;14.80;8.23;;;;;;;;;;5072239;28;20070;-81
2024/02/14 01:32:29;;;;;;;9.57;6.47;;;;;;;;;;5070485;28;20372;-81
2024/02/14 01:34:55;;;;;;;10.82;8.35;;;;;;;;;;5070919;28;20487;-80
2024/02/14 01:37:21;;;;;;;10.10;7.72;;;;;;;;;;5070767;28;20029;-81
2024/02/14 01:39:47;;;;;;;11.15;7.53;;;;;;;;;;5070628;28;20028;-81
2024/02/14 01:42:14;;;;;;;10.38;7.53;;;;;;;;;;5071011;28;20032;-81
2024/02/14 01:44:40;;;;;;;6.95;4.68;;;;;;;;;;5070685;28;20025;-82
2024/02/14 01:47:06;;;;;;;10.20;6.55;;;;;;;;;;5070792;28;20058;-82
2024/02/14 01:49:33;;;;;;;12.23;6.55;;;;;;;;;;5070397;28;20024;-82
2024/02/14 01:52:02;;;;;;;12.27;7.88;;;;;;;;;;5071529;28;20032;-82
2024/02/14 01:54:29;;;;;;;10.75;6.82;;;;;;;;;;5074285;28;20070;-80
2024/02/14 01:56:55;;;;;;;12.48;6.88;;;;;;;;;;5075785;28;20028;-80
2024/02/14 01:59:21;;;;;;;10.48;6.90;;;;;;;;;;5074804;28;20024;-78
2024/02/14 02:01:48;;;;;;;13.68;8.32;;;;;;;;;;5077899;28;20032;-80
2024/02/14 02:04:14;;;;;;;13.18;6.10;;;;;;;;;;5075321;28;20027;-78
2024/02/14 02:06:41;;;;;;;11.55;7.38;;;;;;;;;;5077740;28;20060;-79
2024/02/14 02:09:07;;;;;;;11.52;6.75;;;;;;;;;;5075121;28;20113;-79
2024/02/14 02:11:43;;;;;;;11.35;7.05;;;;;;;;;;5073539;28;20126;-79
2024/02/14 02:14:09;;;;;;;12.73;8.45;;;;;;;;;;5073760;28;20029;-79
2024/02/14 02:16:35;;;;;;;12.98;8.43;;;;;;;;;;5073225;28;20044;-79
2024/02/14 02:19:01;;;;;;;12.50;8.98;;;;;;;;;;5073697;28;20495;-78
2024/02/14 02:21:27;;;;;;;17.05;9.52;;;;;;;;;;5074654;28;20032;-78
2024/02/14 02:23:53;;;;;;;15.43;9.65;;;;;;;;;;5074500;28;20021;-81
2024/02/14 02:26:19;;;;;;;17.05;11.07;;;;;;;;;;5073311;28;20082;-82
2024/02/14 02:28:45;;;;;;;14.63;9.23;;;;;;;;;;5073228;28;20028;-82
2024/02/14 02:31:12;;;;;;;18.40;11.23;;;;;;;;;;5073668;28;20036;-81
2024/02/14 02:33:38;;;;;;;16.23;11.35;;;;;;;;;;5073440;28;20534;-80
2024/02/14 02:36:06;;;;;;;13.18;9.52;;;;;;;;;;5073097;28;20056;-80
2024/02/14 02:38:32;;;;;;;22.17;12.25;;;;;;;;;;5072792;28;20124;-79
2024/02/14 02:40:58;;;;;;;18.75;11.20;;;;;;;;;;5072985;28;20028;-79
2024/02/14 02:43:24;;;;;;;23.92;13.73;;;;;;;;;;5073363;28;20475;-81
2024/02/14 02:45:50;;;;;;;15.02;11.05;;;;;;;;;;5074895;28;20025;-82
2024/02/14 02:48:16;;;;;;;18.92;11.75;;;;;;;;;;5086079;28;20025;-77
2024/02/14 02:50:44;;;;;;;15.80;10.63;;;;;;;;;;5094407;28;20040;-81
2024/02/14 02:53:11;;;;;;;16.15;9.68;;;;;;;;;;5095054;28;20020;-78
2024/02/14 02:55:37;;;;;;;17.10;11.25;;;;;;;;;;5079610;28;20027;-79
2024/02/14 02:58:05;;;;;;;21.25;11.82;;;;;;;;;;5072828;28;20024;-79
2024/02/14 03:00:31;;;;;;;19.73;12.50;;;;;;;;;;5072720;28;20380;-80
2024/02/14 03:02:57;;;;;;;20.00;12.57;;;;;;;;;;5072876;28;20517;-81
2024/02/14 03:05:23;;;;;;;17.95;12.05;;;;;;;;;;5071662;28;20028;-80
2024/02/14 03:07:50;;;;;;;18.30;11.77;;;;;;;;;;5072286;28;20033;-80
2024/02/14 03:10:21;;;;;;;12.40;7.43;;;;;;;;;;5072594;28;20071;-79
2024/02/14 03:12:47;;;;;;;;;;;;;;;;;;5072720;28;20043;-79
2024/02/14 03:15:13;;;;;;;18.65;12.23;;;;;;;;;;5072238;28;20268;-79
2024/02/14 03:17:39;;;;;;;18.05;12.07;;;;;;;;;;5072055;28;20391;-79
2024/02/14 03:20:15;;;;;;;17.35;11.57;;;;;;;;;;5072437;28;20093;-79
2024/02/14 03:22:47;;;;;;;19.10;12.57;;;;;;;;;;5072266;28;20028;-79
2024/02/14 03:25:14;;;;;;;12.48;9.52;;;;;;;;;;5073852;28;20017;-80
2024/02/14 03:27:40;;;;;;;18.40;12.18;;;;;;;;;;5071982;28;20028;-79
2024/02/14 03:30:06;;;;;;;17.83;13.32;;;;;;;;;;5072184;28;20035;-78
2024/02/14 03:32:32;;;;;;;13.75;9.57;;;;;;;;;;5072233;28;20020;-81
2024/02/14 03:35:00;;;;;;;19.33;14.60;;;;;;;;;;5072247;28;20027;-80
2024/02/14 03:37:26;;;;;;;20.08;13.48;;;;;;;;;;5073507;28;20020;-80
2024/02/14 03:39:52;;;;;;;14.68;10.23;;;;;;;;;;5071914;28;20031;-80
2024/02/14 03:42:19;;;;;;;19.10;13.98;;;;;;;;;;5073385;28;20017;-81
2024/02/14 03:44:47;;;;;;;17.35;12.45;;;;;;;;;;5071653;28;20021;-81
2024/02/14 03:47:13;;;;;;;15.02;10.35;;;;;;;;;;5072258;28;20484;-80
2024/02/14 03:49:40;;;;;;;16.88;10.98;;;;;;;;;;5071678;28;20120;-80
2024/02/14 03:52:09;;;;;;;21.40;15.48;;;;;;;;;;5073349;28;20034;-80
2024/02/14 03:54:39;;;;;;;17.88;13.70;;;;;;;;;;5071622;28;20482;-79
2024/02/14 03:57:08;;;;;;;17.52;11.07;;;;;;;;;;5071735;28;20476;-79
2024/02/14 03:59:36;;;;;;;22.52;14.60;;;;;;;;;;5077620;28;20024;-76
2024/02/14 04:02:02;;;;;;;24.17;13.80;;;;;;;;;;5076439;28;20127;-80
2024/02/14 04:04:28;;;;;;;21.65;16.10;;;;;;;;;;5077156;28;20036;-77
2024/02/14 04:06:54;;;;;;;20.88;16.05;;;;;;;;;;5075839;28;20476;-80
2024/02/14 04:09:20;;;;;;;20.63;13.48;;;;;;;;;;5071864;28;20052;-79
2024/02/14 04:11:48;;;;;;;29.13;14.60;;;;;;;;;;5071395;28;20040;-80
2024/02/14 04:14:14;;;;;;;20.67;13.05;;;;;;;;;;5071517;28;20021;-81
2024/02/14 04:16:41;;;;;;;21.45;16.45;;;;;;;;;;5070961;28;20064;-83
2024/02/14 04:19:08;;;;;;;21.55;14.80;;;;;;;;;;5073277;28;20024;-84
2024/02/14 04:21:34;;;;;;;23.50;16.35;;;;;;;;;;5071788;28;20058;-84
2024/02/14 04:24:00;;;;;;;17.73;11.63;;;;;;;;;;5071418;28;20029;-79
2024/02/14 04:26:26;;;;;;;21.95;14.00;;;;;;;;;;5072818;28;20016;-80
2024/02/14 04:28:52;;;;;;;24.23;15.55;;;;;;;;;;5070826;28;20529;-80
2024/02/14 04:31:19;;;;;;;17.73;13.15;;;;;;;;;;5071454;28;20586;-80
2024/02/14 04:33:50;;;;;;;22.90;15.88;;;;;;;;;;5071013;28;20020;-80
2024/02/14 04:36:16;;;;;;;25.55;16.85;;;;;;;;;;5071311;28;20025;-79
2024/02/14 04:38:42;;;;;;;19.83;15.68;;;;;;;;;;5070980;28;20021;-79
2024/02/14 04:41:10;;;;;;;25.92;17.85;;;;;;;;;;5071330;28;20552;-80
2024/02/14 04:43:36;;;;;;;25.40;17.73;;;;;;;;;;5070984;28;20021;-79
2024/02/14 04:46:02;;;;;;;28.63;20.08;;;;;;;;;;5071040;28;20035;-79
2024/02/14 04:48:28;;;;;;;24.60;17.15;;;;;;;;;;5071181;28;20047;-79
2024/02/14 04:50:54;;;;;;;22.27;17.50;;;;;;;;;;5072184;28;20029;-79
2024/02/14 04:53:20;;;;;;;26.45;17.02;;;;;;;;;;5072446;28;20364;-80
2024/02/14 04:55:46;;;;;;;22.17;16.67;;;;;;;;;;5072362;28;20024;-81
2024/02/14 04:58:12;;;;;;;30.30;19.83;;;;;;;;;;5071206;28;20024;-80
2024/02/14 05:00:39;;;;;;;25.92;18.15;;;;;;;;;;5071433;28;20032;-81
2024/02/14 05:03:05;;;;;;;25.33;17.42;;;;;;;;;;5071690;28;20081;-78
2024/02/14 05:05:33;;;;;;;29.58;20.42;;;;;;;;;;5077074;28;20033;-79
2024/02/14 05:07:59;;;;;;;25.00;17.85;;;;;;;;;;5077267;28;20459;-80
2024/02/14 05:10:25;;;;;;;24.83;17.45;;;;;;;;;;5075961;28;20100;-81
2024/02/14 05:12:51;;;;;;;19.80;14.00;;;;;;;;;;5071646;28;20025;-85
2024/02/14 05:15:18;;;;;;;22.25;15.05;;;;;;;;;;5072065;28;20044;-83
2024/02/14 05:17:44;;;;;;;26.40;19.33;;;;;;;;;;5072156;28;20100;-81
2024/02/14 05:20:11;;;;;;;25.80;17.90;;;;;;;;;;5070843;28;20035;-80
2024/02/14 05:22:40;;;;;;;23.45;17.65;;;;;;;;;;5070693;28;20029;-80
2024/02/14 05:25:09;;;;;;;23.38;18.27;;;;;;;;;;5070781;28;20025;-80
2024/02/14 05:27:39;;;;;;;28.80;20.43;;;;;;;;;;5072011;28;20460;-80
2024/02/14 05:30:05;;;;;;;25.47;19.03;;;;;;;;;;5074086;28;20028;-80
2024/02/14 05:32:31;;;;;;;29.58;20.15;;;;;;;;;;5074227;28;20499;-81
2024/02/14 05:34:58;;;;;;;25.23;17.20;;;;;;;;;;5074044;28;20036;-80
2024/02/14 05:37:24;;;;;;;37.97;24.27;;;;;;;;;;5075534;28;20074;-79
2024/02/14 05:39:50;;;;;;;31.17;18.73;;;;;;;;;;5075241;28;20036;-80
2024/02/14 05:42:16;;;;;;;28.73;19.33;;;;;;;;;;5074274;28;20484;-79
2024/02/14 05:44:43;;;;;;;25.25;17.10;;;;;;;;;;5073878;28;20029;-79
2024/02/14 05:47:10;;;;;;;18.30;12.57;;;;;;;;;;5074296;28;20070;-83
2024/02/14 05:49:36;;;;;;;30.13;21.23;;;;;;;;;;5074134;28;20123;-79
2024/02/14 05:52:02;;;;;;;30.85;20.92;;;;;;;;;;5073936;28;20033;-79
2024/02/14 05:54:28;;;;;;;34.10;19.38;;;;;;;;;;5075603;28;20020;-80
2024/02/14 05:56:54;;;;;;;29.88;20.80;;;;;;;;;;5074284;28;20567;-79
2024/02/14 05:59:21;;;;;;;25.85;18.45;;;;;;;;;;5080046;28;20056;-77
2024/02/14 06:01:47;;;;;;;29.88;20.92;;;;;;;;;;5082294;28;20561;-78
2024/02/14 06:04:13;;;;;;;25.52;18.80;;;;;;;;;;5090044;28;20553;-80
2024/02/14 06:06:39;;;;;;;27.70;17.60;;;;;;;;;;5079194;28;20034;-80
2024/02/14 06:09:09;;;;;;;24.85;16.60;;;;;;;;;;5073912;28;20032;-80
2024/02/14 06:11:35;;;;;;;38.33;23.77;;;;;;;;;;5073732;28;20473;-80
2024/02/14 06:14:03;;;;;;;32.03;22.70;;;;;;;;;;5073449;28;20032;-80
2024/02/14 06:16:29;;;;;;;30.13;21.83;;;;;;;;;;5075094;28;20144;-80
2024/02/14 06:18:55;;;;;;;37.90;22.45;;;;;;;;;;5073349;28;20123;-79
2024/02/14 06:21:21;;;;;;;30.20;20.70;;;;;;;;;;5073473;28;20526;-79
2024/02/14 06:23:47;;;;;;;31.08;22.35;;;;;;;;;;5073263;28;20406;-79
2024/02/14 06:26:14;;;;;;;28.42;21.73;;;;;;;;;;5074556;28;20021;-79
2024/02/14 06:28:40;;;;;;;29.42;21.58;;;;;;;;;;5073205;28;20078;-80
2024/02/14 06:31:06;;;;;;;33.15;23.13;;;;;;;;;;5073335;28;20023;-81
2024/02/14 06:33:32;;;;;;;31.80;22.75;;;;;;;;;;5073310;28;20021;-80
2024/02/14 06:35:58;;;;;;;34.17;22.30;;;;;;;;;;5073161;28;20067;-80
2024/02/14 06:38:24;;;;;;;22.98;16.58;;;;;;;;;;5074691;28;20028;-81
2024/02/14 06:40:50;;;;;;;22.83;16.88;;;;;;;;;;5074216;28;20035;-79
2024/02/14 06:43:16;;;;;;;26.83;20.23;;;;;;;;;;5073370;28;20020;-79
2024/02/14 06:45:43;;;;;;;27.90;20.48;;;;;;;;;;5073031;28;20128;-80
2024/02/14 06:48:09;;;;;;;30.52;21.75;;;;;;;;;;5072933;28;20035;-81
2024/02/14 06:50:35;;;;;;;27.23;18.92;;;;;;;;;;5073080;28;20067;-80
2024/02/14 06:53:01;;;;;;;25.77;19.20;;;;;;;;;;5072955;28;20055;-81
2024/02/14 06:55:29;;;;;;;31.15;22.23;;;;;;;;;;5073085;28;20345;-81
2024/02/14 06:57:56;;;;;;;29.33;20.58;;;;;;;;;;5073774;28;20031;-81
2024/02/14 07:00:22;;;;;;;22.17;17.10;;;;;;;;;;5073376;28;20376;-81
2024/02/14 07:02:48;;;;;;;20.63;15.70;;;;;;;;;;5072514;28;20029;-80
2024/02/14 07:05:14;;;;;;;28.10;20.25;;;;;;;;;;5072513;28;20560;-80
2024/02/14 07:07:43;;;;;;;28.98;21.45;;;;;;;;;;5072365;28;20119;-79
2024/02/14 07:10:09;;;;;;;26.52;19.33;;;;;;;;;;5072294;28;20037;-79
2024/02/14 07:12:36;;;;;;;23.35;15.27;;;;;;;;;;5072475;28;20021;-81
2024/02/14 07:15:04;;;;;;;27.85;20.85;;;;;;;;;;5072238;28;20086;-82
2024/02/14 07:17:30;;;;;;;21.20;17.00;;;;;;;;;;5074834;28;20480;-81
2024/02/14 07:19:56;;;;;;;23.92;17.13;;;;;;;;;;5072503;28;20056;-80
2024/02/14 07:22:22;;;;;;;26.20;19.17;;;;;;;;;;5072557;28;20016;-79
2024/02/14 07:24:48;;;;;;;30.00;22.17;;;;;;;;;;5072372;28;20020;-79
2024/02/14 07:27:16;;;;;;;25.23;18.92;;;;;;;;;;5072414;28;20017;-80
2024/02/14 07:29:42;;;;;;;31.95;22.30;;;;;;;;;;5072020;28;20037;-80
2024/02/14 07:32:08;;;;;;;30.67;20.17;;;;;;;;;;5071794;28;20017;-79
2024/02/14 07:34:34;;;;;;;30.38;20.95;;;;;;;;;;5071938;28;20090;-79
2024/02/14 07:37:00;;;;;;;27.40;18.50;;;;;;;;;;5071783;28;20155;-78
2024/02/14 07:39:26;;;;;;;28.15;19.05;;;;;;;;;;5071944;28;20082;-79
2024/02/14 07:41:52;;;;;;;33.13;21.42;;;;;;;;;;5071616;28;20028;-78
2024/02/14 07:44:18;;;;;;;33.65;22.63;;;;;;;;;;5071860;28;20258;-78
2024/02/14 07:46:44;;;;;;;33.30;20.27;;;;;;;;;;5072981;28;20029;-79
2024/02/14 07:49:11;;;;;;;31.23;22.13;;;;;;;;;;5071253;28;20047;-79
2024/02/14 07:51:37;;;;;;;38.45;24.38;;;;;;;;;;5071042;28;20029;-79
2024/02/14 07:54:04;;;;;;;34.40;23.10;;;;;;;;;;5071542;28;20027;-78
2024/02/14 07:56:31;;;;;;;32.08;23.75;;;;;;;;;;5071685;28;20024;-78
2024/02/14 07:58:57;;;;;;;32.42;22.48;;;;;;;;;;5073526;28;20154;-77
2024/02/14 08:01:23;;;;;;;14.88;9.80;;;;;;;;;;5072227;28;20021;-79
2024/02/14 08:03:49;;;;;;;32.80;22.42;;;;;;;;;;5072305;28;20496;-76
2024/02/14 08:06:15;;;;;;;25.10;17.83;;;;;;;;;;5071962;28;20020;-77
2024/02/14 08:08:41;;;;;;;32.78;23.17;;;;;;;;;;5071227;28;20021;-78
2024/02/14 08:11:07;;;;;;;27.63;18.65;;;;;;;;;;5071014;28;20021;-78
2024/02/14 08:13:34;;;;;;;33.45;23.95;;;;;;;;;;5071244;28;20032;-78
2024/02/14 08:16:00;;;;;;;28.85;20.80;;;;;;;;;;5072130;28;20396;-78
2024/02/14 08:18:29;;;;;;;24.08;17.75;;;;;;;;;;5070970;28;20017;-79
2024/02/14 08:20:55;;;;;;;28.95;19.63;;;;;;;;;;5070840;28;20028;-78
2024/02/14 08:23:21;;;;;;;36.17;23.10;;;;;;;;;;5070913;28;20028;-77
2024/02/14 08:25:48;;;;;;;29.95;22.05;;;;;;;;;;5071348;28;20052;-78
2024/02/14 08:28:14;;;;;;;35.83;22.20;;;;;;;;;;5070593;28;20029;-78
2024/02/14 08:30:41;;;;;;;27.52;20.23;;;;;;;;;;5070719;28;20535;-78
2024/02/14 08:33:07;;;;;;;28.42;19.75;;;;;;;;;;5070760;28;20091;-77
2024/02/14 08:35:33;;;;;;;28.30;19.48;;;;;;;;;;5071079;28;20024;-78
2024/02/14 08:37:59;;;;;;;25.90;17.10;;;;;;;;;;5070813;28;20060;-77
2024/02/14 08:40:25;;;;;;;28.27;21.45;;;;;;;;;;5071004;28;20020;-77
2024/02/14 08:42:51;;;;;;;20.15;14.38;;;;;;;;;;5072108;28;20020;-79
2024/02/14 08:45:17;;;;;;;27.83;18.25;;;;;;;;;;5071959;28;20012;-78
2024/02/14 08:47:46;;;;;;;22.50;16.17;;;;;;;;;;5072472;28;20433;-79
2024/02/14 08:50:13;;;;;;;25.45;18.30;;;;;;;;;;5070205;28;20028;-78
2024/02/14 08:52:40;;;;;;;27.00;18.25;;;;;;;;;;5070595;28;20078;-79
2024/02/14 08:55:14;;;;;;;27.70;18.58;;;;;;;;;;5072054;28;20020;-78
2024/02/14 08:57:40;;;;;;;23.13;17.02;;;;;;;;;;5070893;28;20032;-78
2024/02/14 09:00:07;;;;;;;30.73;18.75;;;;;;;;;;5070721;28;20032;-78
2024/02/14 09:02:34;;;;;;;26.20;18.58;;;;;;;;;;5072211;28;20119;-79
2024/02/14 09:05:01;;;;;;;25.98;18.58;;;;;;;;;;5074712;28;20063;-78
2024/02/14 09:07:27;;;;;;;15.98;11.68;;;;;;;;;;5074889;28;20025;-78
2024/02/14 09:09:53;;;;;;;26.42;18.27;;;;;;;;;;5074565;28;20039;-78
2024/02/14 09:12:19;;;;;;;26.38;17.33;;;;;;;;;;5074801;28;20055;-79
2024/02/14 09:14:45;;;;;;;22.25;16.15;;;;;;;;;;5074581;28;20036;-78
2024/02/14 09:17:12;;;;;;;23.90;18.73;;;;;;;;;;5074257;28;20020;-78
2024/02/14 09:19:40;;;;;;;23.83;17.98;;;;;;;;;;5074478;28;20025;-78
2024/02/14 09:22:06;;;;;;;23.42;18.33;;;;;;;;;;5074331;28;20020;-78
2024/02/14 09:24:32;;;;;;;19.02;13.25;;;;;;;;;;5074652;28;20032;-78
2024/02/14 09:26:59;;;;;;;23.83;18.08;;;;;;;;;;5073962;28;20387;-78
2024/02/14 09:29:25;;;;;;;22.13;14.50;;;;;;;;;;5075429;28;20028;-78
2024/02/14 09:31:51;;;;;;;21.05;15.52;;;;;;;;;;5074454;28;20060;-77
2024/02/14 09:34:19;;;;;;;23.92;16.50;;;;;;;;;;5075649;28;20032;-78
2024/02/14 09:36:45;;;;;;;26.73;18.35;;;;;;;;;;5074692;28;20017;-78
2024/02/14 09:39:11;;;;;;;21.13;13.73;;;;;;;;;;5076055;28;20033;-77
2024/02/14 09:41:40;;;;;;;21.17;16.00;;;;;;;;;;5076061;28;20074;-77
2024/02/14 09:44:07;;;;;;;17.23;11.23;;;;;;;;;;5073726;28;20052;-78
2024/02/14 09:46:36;;;;;;;16.17;11.82;;;;;;;;;;5074169;28;20064;-78
2024/02/14 09:49:03;;;;;;;17.15;11.38;;;;;;;;;;5075120;28;20154;-78
2024/02/14 09:51:30;;;;;;;22.80;15.75;;;;;;;;;;5074107;28;20037;-78
2024/02/14 09:53:57;;;;;;;20.50;12.73;;;;;;;;;;5073821;28;20444;-77
2024/02/14 09:56:23;;;;;;;25.88;16.63;;;;;;;;;;5075280;28;20031;-78
2024/02/14 09:58:55;;;;;;;22.27;14.52;;;;;;;;;;5073987;28;20031;-78
2024/02/14 10:01:23;;;;;;;29.15;19.33;;;;;;;;;;5074035;28;20029;-78
2024/02/14 10:03:50;;;;;;;23.13;14.93;;;;;;;;;;5074139;28;20032;-79
2024/02/14 10:06:16;;;;;;;20.70;14.73;;;;;;;;;;5074108;28;20024;-77
2024/02/14 10:08:42;;;;;;;25.67;19.38;;;;;;;;;;5073810;28;20032;-79
2024/02/14 10:11:10;;;;;;;23.65;15.55;;;;;;;;;;5073501;28;20035;-78
2024/02/14 10:13:36;;;;;;;26.45;16.95;;;;;;;;;;5073034;28;20031;-78
2024/02/14 10:16:03;;;;;;;28.50;17.77;;;;;;;;;;5072959;28;20049;-78
2024/02/14 10:18:29;;;;;;;27.80;18.30;;;;;;;;;;5073493;28;20023;-78
2024/02/14 10:20:58;;;;;;;21.90;15.82;;;;;;;;;;5073573;28;20473;-78
2024/02/14 10:23:25;;;;;;;26.95;17.17;;;;;;;;;;5073576;28;20464;-80
2024/02/14 10:25:51;;;;;;;24.77;15.30;;;;;;;;;;5073598;28;20024;-80
2024/02/14 10:28:17;;;;;;;27.60;17.40;;;;;;;;;;5073161;28;20115;-80
2024/02/14 10:30:46;;;;;;;22.08;12.07;;;;;;;;;;5073204;28;20111;-81
2024/02/14 10:33:12;;;;;;;20.75;12.32;;;;;;;;;;5072864;28;20086;-81
2024/02/14 10:35:41;;;;;;;19.67;13.73;;;;;;;;;;5074257;28;20025;-81
2024/02/14 10:38:09;;;;;;;28.05;15.70;;;;;;;;;;5072866;28;20031;-81
2024/02/14 10:40:35;;;;;;;20.65;12.48;;;;;;;;;;5072838;28;20028;-80
2024/02/14 10:43:02;;;;;;;19.70;14.45;;;;;;;;;;5077676;28;20057;-81
2024/02/14 10:45:28;;;;;;;23.52;18.67;;;;;;;;;;5075984;28;20029;-80
2024/02/14 10:47:57;;;;;;;20.15;14.73;;;;;;;;;;5075027;28;20040;-78
2024/02/14 10:50:24;;;;;;;25.25;15.85;;;;;;;;;;5073421;28;20388;-79
2024/02/14 10:52:52;;;;;;;23.67;15.07;;;;;;;;;;5072760;28;20089;-79
2024/02/14 10:55:22;;;;;;;27.75;16.70;;;;;;;;;;5072712;28;20028;-79
2024/02/14 10:57:49;;;;;;;24.77;16.40;;;;;;;;;;5072602;28;20028;-79
2024/02/14 11:00:18;;;;;;;25.65;17.27;;;;;;;;;;5072597;28;20081;-79
2024/02/14 11:02:44;;;;;;;18.65;13.10;;;;;;;;;;5072414;28;20020;-79
2024/02/14 11:05:16;;;;;;;21.60;13.77;;;;;;;;;;5072527;28;20050;-79
2024/02/14 11:07:47;;;;;;;23.45;15.82;;;;;;;;;;5073799;28;20032;-79
2024/02/14 11:10:13;;;;;;;;;;;;;;;;;;5072583;28;20051;-78
2024/02/14 11:12:39;;;;;;;17.92;12.77;;;;;;;;;;5072440;28;20431;-80
2024/02/14 11:15:21;;;;;;;25.83;14.95;;;;;;;;;;5071826;28;20051;-78
2024/02/14 11:17:52;;;;;;;26.40;15.90;;;;;;;;;;5072282;28;20024;-80
2024/02/14 11:20:32;;;;;;;24.13;15.10;;;;;;;;;;5071787;28;20095;-80
2024/02/14 11:23:03;;;;;;;25.05;15.10;;;;;;;;;;5071762;28;20032;-80
2024/02/14 11:25:33;;;;;;;22.67;13.15;;;;;;;;;;5070920;28;20036;-78
2024/02/14 11:28:02;;;;;;;22.30;15.30;;;;;;;;;;5071726;28;20032;-79
2024/02/14 11:30:46;;;;;;;22.15;12.65;;;;;;;;;;5072022;28;20067;-79
2024/02/14 11:33:15;;;;;;;20.02;14.98;;;;;;;;;;5073136;28;20031;-79
2024/02/14 11:35:41;;;;;;;13.25;9.80;;;;;;;;;;5071957;28;20027;-79
2024/02/14 11:38:09;;;;;;;16.70;10.52;;;;;;;;;;5074969;28;20028;-77
2024/02/14 11:40:35;;;;;;;17.52;13.07;;;;;;;;;;5074288;28;20056;-78
2024/02/14 11:43:01;;;;;;;19.75;13.13;;;;;;;;;;5072846;28;20074;-79
2024/02/14 11:45:30;;;;;;;19.58;13.60;;;;;;;;;;5071935;28;20090;-78
2024/02/14 11:47:56;;;;;;;21.75;14.50;;;;;;;;;;5073287;28;20044;-79
2024/02/14 11:50:23;;;;;;;21.20;14.13;;;;;;;;;;5073092;28;20040;-77
2024/02/14 11:52:49;;;;;;;19.38;11.95;;;;;;;;;;5072334;28;20028;-78
2024/02/14 11:55:18;;;;;;;25.52;14.70;;;;;;;;;;5072239;28;20350;-78
2024/02/14 11:57:47;;;;;;;17.85;10.90;;;;;;;;;;5073734;28;20021;-78
2024/02/14 12:00:13;;;;;;;24.60;13.32;;;;;;;;;;5071296;28;20384;-79
2024/02/14 12:02:40;;;;;;;18.40;11.52;;;;;;;;;;5071601;28;20021;-78
2024/02/14 12:05:06;;;;;;;18.23;11.63;;;;;;;;;;5072723;28;20021;-77
2024/02/14 12:07:32;;;;;;;14.77;11.02;;;;;;;;;;5072590;28;20024;-79
2024/02/14 12:09:59;;;;;;;19.20;12.73;;;;;;;;;;5072248;28;20024;-76
2024/02/14 12:12:25;;;;;;;13.80;8.30;;;;;;;;;;5071646;28;20028;-78
2024/02/14 12:14:54;;;;;;;16.15;10.27;;;;;;;;;;5070997;28;20020;-79
2024/02/14 12:17:21;;;;;;;18.17;11.95;;;;;;;;;;5071410;28;20031;-78
2024/02/14 12:19:48;;;;;;;15.10;9.88;;;;;;;;;;5072226;28;20376;-78
2024/02/14 12:22:17;;;;;;;20.52;13.20;;;;;;;;;;5071019;28;20029;-79
2024/02/14 12:24:44;;;;;;;18.17;9.35;;;;;;;;;;5071237;28;20483;-79
2024/02/14 12:27:11;;;;;;;16.42;10.48;;;;;;;;;;5071792;28;20044;-79
2024/02/14 12:29:37;;;;;;;15.23;11.70;;;;;;;;;;5070945;28;20021;-79
2024/02/14 12:32:06;;;;;;;16.40;11.50;;;;;;;;;;5070786;28;20036;-79
2024/02/14 12:34:33;;;;;;;13.15;10.20;;;;;;;;;;5070929;28;20066;-78
2024/02/14 12:37:03;;;;;;;12.98;9.88;;;;;;;;;;5072002;28;20195;-79
2024/02/14 12:39:29;;;;;;;13.52;9.38;;;;;;;;;;5070865;28;20028;-78
2024/02/14 12:41:55;;;;;;;10.60;7.57;;;;;;;;;;5070834;28;20020;-78
2024/02/14 12:44:21;;;;;;;14.98;11.32;;;;;;;;;;5070506;28;20060;-79
2024/02/14 12:46:48;;;;;;;17.92;11.18;;;;;;;;;;5070560;28;20031;-79
2024/02/14 12:49:14;;;;;;;16.70;10.82;;;;;;;;;;5070505;28;20494;-78
2024/02/14 12:51:40;;;;;;;11.90;8.27;;;;;;;;;;5072148;28;20391;-79
2024/02/14 12:54:09;;;;;;;14.20;10.15;;;;;;;;;;5070533;28;20025;-78
2024/02/14 12:56:35;;;;;;;12.43;8.10;;;;;;;;;;5072134;28;20460;-80
2024/02/14 12:59:02;;;;;;;10.88;6.95;;;;;;;;;;5070442;28;20078;-79
2024/02/14 13:01:30;;;;;;;11.10;8.30;;;;;;;;;;5071749;28;20078;-76
2024/02/14 13:03:56;;;;;;;10.52;7.63;;;;;;;;;;5070553;28;20472;-78
2024/02/14 13:06:23;;;;;;;11.82;7.95;;;;;;;;;;5070139;28;20024;-78
2024/02/14 13:08:49;;;;;;;12.32;8.65;;;;;;;;;;5071743;28;20043;-79
2024/02/14 13:11:18;;;;;;;13.05;8.65;;;;;;;;;;5071998;28;20507;-79
2024/02/14 13:13:44;;;;;;;9.25;6.28;;;;;;;;;;5071605;28;20052;-79
2024/02/14 13:16:10;;;;;;;8.98;7.00;;;;;;;;;;5071184;28;20443;-79
2024/02/14 13:18:36;;;;;;;8.68;6.50;;;;;;;;;;5070671;28;20027;-79
2024/02/14 13:21:02;;;;;;;8.52;6.32;;;;;;;;;;5070210;28;20123;-79
2024/02/14 13:23:29;;;;;;;10.57;7.68;;;;;;;;;;5070625;28;20032;-79
2024/02/14 13:25:55;;;;;;;9.20;6.55;;;;;;;;;;5072015;28;20407;-79
2024/02/14 13:28:21;;;;;;;10.93;7.18;;;;;;;;;;5070445;28;20448;-79
2024/02/14 13:30:48;;;;;;;8.48;5.97;;;;;;;;;;5071054;28;20036;-79
2024/02/14 13:33:17;;;;;;;9.80;6.60;;;;;;;;;;5071076;28;20025;-79
2024/02/14 13:35:43;;;;;;;9.43;5.90;;;;;;;;;;5070929;28;20490;-77
2024/02/14 13:38:12;;;;;;;7.97;5.38;;;;;;;;;;5070634;28;20028;-79
2024/02/14 13:40:38;;;;;;;10.73;7.55;;;;;;;;;;5070968;28;20021;-80
2024/02/14 13:43:04;;;;;;;9.13;6.60;;;;;;;;;;5070567;28;20021;-79
2024/02/14 13:45:42;;;;;;;9.50;6.20;;;;;;;;;;5070722;28;20201;-78
2024/02/14 13:48:09;;;;;;;10.15;6.28;;;;;;;;;;5070775;28;20021;-79
2024/02/14 13:50:35;;;;;;;9.10;5.75;;;;;;;;;;5075222;28;20085;-77
2024/02/14 13:53:01;;;;;;;9.63;6.75;;;;;;;;;;5073677;28;20033;-79
2024/02/14 13:55:27;;;;;;;7.00;4.97;;;;;;;;;;5073844;28;20025;-79
2024/02/14 13:57:53;;;;;;;10.13;7.22;;;;;;;;;;5073836;28;20023;-79
2024/02/14 14:00:19;;;;;;;13.02;8.07;;;;;;;;;;5073677;28;20036;-78
2024/02/14 14:02:45;;;;;;;9.50;6.32;;;;;;;;;;5075297;28;20021;-78
2024/02/14 14:05:12;;;;;;;10.57;6.80;;;;;;;;;;5076192;28;20024;-77
2024/02/14 14:07:41;;;;;;;11.95;8.15;;;;;;;;;;5076476;28;20131;-77
2024/02/14 14:10:09;;;;;;;15.07;9.10;;;;;;;;;;5074149;28;20067;-78
2024/02/14 14:12:35;;;;;;;14.07;9.52;;;;;;;;;;5074691;28;20763;-78
2024/02/14 14:15:02;;;;;;;12.95;9.65;;;;;;;;;;5073250;28;20051;-79
2024/02/14 14:17:28;;;;;;;10.93;8.50;;;;;;;;;;5073389;28;20020;-78
2024/02/14 14:19:54;;;;;;;16.48;10.55;;;;;;;;;;5073553;28;20052;-78
2024/02/14 14:22:21;;;;;;;16.48;12.23;;;;;;;;;;5073208;28;20033;-79